Time,TemperatureF,DewpointF,PressureIn,WindDirection,WindDirectionDegrees,WindSpeedMPH,WindSpeedGustMPH,Humidity,HourlyPrecipIn,Conditions,Clouds,dailyrainin,SolarRadiationWatts/m^2,SoftwareType,DateUTC
2013-02-22 00:02:00,41.8,38.5,30.10,South,172,2.0,5.0,88,0.00,,,0.00,0,Wunderground v.1.15,2013-02-22 08:02:00,
2013-02-22 00:07:00,41.8,38.8,30.10,South,172,4.0,5.0,89,0.00,,,0.00,0,Wunderground v.1.15,2013-02-22 08:07:00,
2013-02-22 00:13:00,41.8,38.8,30.10,South,172,1.0,4.0,89,0.00,,,0.00,0,Wunderground v.1.15,2013-02-22 08:13:00,
2013-02-22 00:19:00,41.8,38.8,30.10,South,172,4.0,4.0,89,0.00,,,0.00,0,Wunderground v.1.15,2013-02-22 08:19:00,
2013-02-22 00:25:00,41.8,38.8,30.10,South,172,2.0,4.0,89,0.00,,,0.00,0,Wunderground v.1.15,2013-02-22 08:25:00,
2013-02-22 00:31:00,41.6,38.6,30.09,South,172,1.0,3.0,89,0.00,,,0.00,0,Wunderground v.1.15,2013-02-22 08:31:00,
2013-02-22 00:37:00,41.6,38.6,30.10,South,171,2.0,5.0,89,0.00,,,0.00,0,Wunderground v.1.15,2013-02-22 08:37:00,
2013-02-22 00:43:00,41.7,38.7,30.10,South,178,6.0,6.0,89,0.00,,,0.00,0,Wunderground v.1.15,2013-02-22 08:43:00,
2013-02-22 00:48:00,41.9,39.2,30.10,South,185,7.0,8.0,90,0.00,,,0.00,0,Wunderground v.1.15,2013-02-22 08:48:00,
2013-02-22 00:54:00,42.1,39.4,30.10,SSW,193,5.0,7.0,90,0.00,,,0.00,0,Wunderground v.1.15,2013-02-22 08:54:00,
2013-02-22 01:00:00,42.1,39.4,30.10,South,178,5.0,6.0,90,0.00,,,0.00,0,Wunderground v.1.15,2013-02-22 09:00:00,
2013-02-22 01:06:00,42.1,39.4,30.10,South,179,5.0,7.0,90,0.00,,,0.00,0,Wunderground v.1.15,2013-02-22 09:06:00,
2013-02-22 01:12:00,42.0,39.3,30.10,South,174,5.0,6.0,90,0.00,,,0.00,0,Wunderground v.1.15,2013-02-22 09:12:00,
2013-02-22 01:18:00,42.0,39.3,30.10,South,183,5.0,7.0,90,0.00,,,0.00,0,Wunderground v.1.15,2013-02-22 09:18:00,
2013-02-22 01:24:00,42.1,39.4,30.09,SSE,158,5.0,6.0,90,0.00,,,0.00,0,Wunderground v.1.15,2013-02-22 09:24:00,
2013-02-22 01:30:00,42.1,39.4,30.09,SSE,163,6.0,6.0,90,0.00,,,0.00,0,Wunderground v.1.15,2013-02-22 09:30:00,
2013-02-22 01:36:00,42.1,39.7,30.09,South,182,6.0,11.0,91,0.00,,,0.00,0,Wunderground v.1.15,2013-02-22 09:36:00,
2013-02-22 01:41:00,42.2,39.8,30.09,SSE,158,5.0,6.0,91,0.00,,,0.01,0,Wunderground v.1.15,2013-02-22 09:41:00,
2013-02-22 01:47:00,42.1,39.7,30.09,South,169,4.0,6.0,91,0.00,,,0.01,0,Wunderground v.1.15,2013-02-22 09:47:00,
2013-02-22 01:53:00,42.0,39.6,30.08,SE,146,4.0,5.0,91,0.00,,,0.01,0,Wunderground v.1.15,2013-02-22 09:53:00,
2013-02-22 01:59:00,41.9,39.2,30.09,SSW,192,4.0,6.0,90,0.00,,,0.01,0,Wunderground v.1.15,2013-02-22 09:59:00,
2013-02-22 02:04:00,41.8,39.1,30.08,South,183,4.0,8.0,90,0.00,,,0.01,0,Wunderground v.1.15,2013-02-22 10:04:00,
2013-02-22 02:09:00,41.9,39.5,30.08,South,175,6.0,8.0,91,0.00,,,0.01,0,Wunderground v.1.15,2013-02-22 10:09:00,
2013-02-22 02:14:00,41.9,39.5,30.08,South,182,6.0,8.0,91,0.00,,,0.01,0,Wunderground v.1.15,2013-02-22 10:14:00,
2013-02-22 02:19:00,41.9,39.5,30.08,South,190,5.0,8.0,91,0.00,,,0.01,0,Wunderground v.1.15,2013-02-22 10:19:00,
2013-02-22 02:24:00,41.8,39.1,30.08,SSW,201,7.0,7.0,90,0.00,,,0.01,0,Wunderground v.1.15,2013-02-22 10:24:00,
2013-02-22 02:29:00,41.8,39.1,30.08,South,191,5.0,8.0,90,0.00,,,0.01,0,Wunderground v.1.15,2013-02-22 10:29:00,
2013-02-22 02:34:00,41.7,39.0,30.07,South,178,6.0,7.0,90,0.00,,,0.01,0,Wunderground v.1.15,2013-02-22 10:34:00,
2013-02-22 02:39:00,41.7,39.0,30.07,South,169,5.0,7.0,90,0.00,,,0.01,0,Wunderground v.1.15,2013-02-22 10:39:00,
2013-02-22 02:44:00,41.7,39.0,30.07,SSE,166,6.0,6.0,90,0.00,,,0.01,0,Wunderground v.1.15,2013-02-22 10:44:00,
2013-02-22 02:49:00,41.7,39.0,30.06,South,176,8.0,9.0,90,0.00,,,0.01,0,Wunderground v.1.15,2013-02-22 10:49:00,
2013-02-22 02:54:00,41.7,39.0,30.06,South,176,5.0,8.0,90,0.00,,,0.01,0,Wunderground v.1.15,2013-02-22 10:54:00,
2013-02-22 02:59:00,41.8,39.1,30.07,South,184,3.0,8.0,90,0.00,,,0.01,0,Wunderground v.1.15,2013-02-22 10:59:00,
2013-02-22 03:04:00,41.8,39.4,30.07,South,190,6.0,6.0,91,0.00,,,0.01,0,Wunderground v.1.15,2013-02-22 11:04:00,
2013-02-22 03:09:00,41.8,39.4,30.07,SSW,196,5.0,8.0,91,0.00,,,0.01,0,Wunderground v.1.15,2013-02-22 11:09:00,
2013-02-22 03:14:00,41.7,39.3,30.07,South,188,5.0,6.0,91,0.00,,,0.01,0,Wunderground v.1.15,2013-02-22 11:14:00,
2013-02-22 03:19:00,41.6,38.9,30.06,South,176,5.0,8.0,90,0.00,,,0.01,0,Wunderground v.1.15,2013-02-22 11:19:00,
2013-02-22 03:24:00,41.6,38.9,30.05,South,176,4.0,6.0,90,0.00,,,0.01,0,Wunderground v.1.15,2013-02-22 11:24:00,
2013-02-22 03:29:00,41.6,38.9,30.05,South,169,4.0,6.0,90,0.00,,,0.01,0,Wunderground v.1.15,2013-02-22 11:29:00,
2013-02-22 03:34:00,41.7,39.0,30.05,South,174,1.0,6.0,90,0.00,,,0.01,0,Wunderground v.1.15,2013-02-22 11:34:00,
2013-02-22 03:39:00,41.7,39.0,30.05,South,185,5.0,7.0,90,0.00,,,0.01,0,Wunderground v.1.15,2013-02-22 11:39:00,
2013-02-22 03:44:00,41.8,39.1,30.04,SSW,209,5.0,9.0,90,0.00,,,0.01,0,Wunderground v.1.15,2013-02-22 11:44:00,
2013-02-22 03:49:00,41.9,39.2,30.04,SSW,194,5.0,9.0,90,0.00,,,0.01,0,Wunderground v.1.15,2013-02-22 11:49:00,
2013-02-22 03:54:00,41.9,39.2,30.04,SSW,193,8.0,8.0,90,0.00,,,0.01,0,Wunderground v.1.15,2013-02-22 11:54:00,
2013-02-22 03:59:00,41.9,39.2,30.03,SSW,200,7.0,10.0,90,0.00,,,0.01,0,Wunderground v.1.15,2013-02-22 11:59:00,
2013-02-22 04:04:00,41.8,39.1,30.03,SSW,198,6.0,9.0,90,0.00,,,0.01,0,Wunderground v.1.15,2013-02-22 12:04:00,
2013-02-22 04:09:00,41.8,39.1,30.03,SSW,192,3.0,9.0,90,0.00,,,0.01,0,Wunderground v.1.15,2013-02-22 12:09:00,
2013-02-22 04:14:00,41.8,39.1,30.02,South,187,6.0,9.0,90,0.00,,,0.01,0,Wunderground v.1.15,2013-02-22 12:14:00,
2013-02-22 04:19:00,41.8,39.1,30.02,South,186,6.0,10.0,90,0.00,,,0.01,0,Wunderground v.1.15,2013-02-22 12:19:00,
2013-02-22 04:24:00,41.7,39.0,30.02,South,186,5.0,7.0,90,0.00,,,0.01,0,Wunderground v.1.15,2013-02-22 12:24:00,
2013-02-22 04:29:00,41.8,39.1,30.02,SSW,208,5.0,7.0,90,0.00,,,0.01,0,Wunderground v.1.15,2013-02-22 12:29:00,
2013-02-22 04:34:00,41.8,39.1,30.02,SSW,202,6.0,7.0,90,0.00,,,0.01,0,Wunderground v.1.15,2013-02-22 12:34:00,
2013-02-22 04:39:00,41.8,39.1,30.01,SSW,195,4.0,7.0,90,0.00,,,0.01,0,Wunderground v.1.15,2013-02-22 12:39:00,
2013-02-22 04:44:00,41.8,39.1,30.02,SSW,194,4.0,6.0,90,0.00,,,0.01,0,Wunderground v.1.15,2013-02-22 12:44:00,
2013-02-22 04:49:00,41.8,39.1,30.02,SSW,194,4.0,6.0,90,0.00,,,0.01,0,Wunderground v.1.15,2013-02-22 12:49:00,
2013-02-22 04:54:00,41.8,39.1,30.02,SSW,194,2.0,6.0,90,0.00,,,0.01,0,Wunderground v.1.15,2013-02-22 12:54:00,
2013-02-22 04:59:00,41.8,39.1,30.01,SSE,151,4.0,7.0,90,0.00,,,0.01,0,Wunderground v.1.15,2013-02-22 12:59:00,
2013-02-22 05:04:00,41.8,39.1,30.01,South,178,4.0,7.0,90,0.00,,,0.01,0,Wunderground v.1.15,2013-02-22 13:04:00,
2013-02-22 05:09:00,41.9,39.2,30.02,South,171,8.0,10.0,90,0.00,,,0.01,0,Wunderground v.1.15,2013-02-22 13:09:00,
2013-02-22 05:14:00,42.3,39.6,30.01,South,170,8.0,12.0,90,0.00,,,0.01,0,Wunderground v.1.15,2013-02-22 13:14:00,
2013-02-22 05:19:00,42.5,40.1,30.01,South,170,8.0,12.0,91,0.00,,,0.01,0,Wunderground v.1.15,2013-02-22 13:19:00,
2013-02-22 05:24:00,42.4,40.0,30.00,South,173,13.0,13.0,91,0.00,,,0.01,0,Wunderground v.1.15,2013-02-22 13:24:00,
2013-02-22 05:29:00,42.4,40.0,30.00,SSE,165,4.0,13.0,91,0.00,,,0.01,0,Wunderground v.1.15,2013-02-22 13:29:00,
2013-02-22 05:34:00,42.3,39.9,30.00,South,188,7.0,9.0,91,0.00,,,0.01,0,Wunderground v.1.15,2013-02-22 13:34:00,
2013-02-22 05:39:00,42.3,39.9,30.00,South,175,6.0,9.0,91,0.00,,,0.01,0,Wunderground v.1.15,2013-02-22 13:39:00,
2013-02-22 05:44:00,42.2,39.8,30.00,South,171,6.0,8.0,91,0.00,,,0.01,0,Wunderground v.1.15,2013-02-22 13:44:00,
2013-02-22 05:49:00,42.2,39.5,30.00,South,169,5.0,8.0,90,0.00,,,0.01,0,Wunderground v.1.15,2013-02-22 13:49:00,
2013-02-22 05:54:00,42.2,39.5,29.99,South,170,6.0,6.0,90,0.00,,,0.01,0,Wunderground v.1.15,2013-02-22 13:54:00,
2013-02-22 05:59:00,42.1,39.4,29.99,South,175,6.0,6.0,90,0.00,,,0.01,0,Wunderground v.1.15,2013-02-22 13:59:00,
2013-02-22 06:04:00,42.2,39.5,29.98,South,171,5.0,7.0,90,0.00,,,0.01,0,Wunderground v.1.15,2013-02-22 14:04:00,
2013-02-22 06:09:00,42.3,39.6,29.98,South,170,6.0,8.0,90,0.00,,,0.01,0,Wunderground v.1.15,2013-02-22 14:09:00,
2013-02-22 06:14:00,42.4,39.7,29.97,South,185,8.0,10.0,90,0.00,,,0.01,0,Wunderground v.1.15,2013-02-22 14:14:00,
2013-02-22 06:19:00,42.6,40.2,29.97,South,184,6.0,10.0,91,0.00,,,0.01,0,Wunderground v.1.15,2013-02-22 14:19:00,
2013-02-22 06:24:00,42.6,40.2,29.96,SSE,165,6.0,8.0,91,0.00,,,0.01,0,Wunderground v.1.15,2013-02-22 14:24:00,
2013-02-22 06:29:00,42.7,40.3,29.96,SSE,167,8.0,10.0,91,0.00,,,0.01,0,Wunderground v.1.15,2013-02-22 14:29:00,
2013-02-22 06:34:00,42.8,40.4,29.95,SSE,159,7.0,12.0,91,0.00,,,0.01,0,Wunderground v.1.15,2013-02-22 14:34:00,
2013-02-22 06:39:00,43.0,40.6,29.95,SE,143,10.0,12.0,91,0.00,,,0.01,0,Wunderground v.1.15,2013-02-22 14:39:00,
2013-02-22 06:44:00,42.9,40.5,29.95,SSE,148,8.0,12.0,91,0.00,,,0.01,0,Wunderground v.1.15,2013-02-22 14:44:00,
2013-02-22 06:49:00,42.9,40.5,29.94,SSE,148,6.0,12.0,91,0.00,,,0.01,0,Wunderground v.1.15,2013-02-22 14:49:00,
2013-02-22 06:55:00,43.1,40.7,29.94,SSE,165,7.0,18.0,91,0.00,,,0.01,0,Wunderground v.1.15,2013-02-22 14:55:00,
2013-02-22 07:00:00,43.0,40.6,29.93,SE,145,10.0,12.0,91,0.00,,,0.01,0,Wunderground v.1.15,2013-02-22 15:00:00,
2013-02-22 07:05:00,43.2,40.8,29.94,South,171,15.0,19.0,91,0.00,,,0.01,0,Wunderground v.1.15,2013-02-22 15:05:00,
2013-02-22 07:10:00,43.2,40.5,29.94,SSE,165,9.0,11.0,90,0.00,,,0.01,0,Wunderground v.1.15,2013-02-22 15:10:00,
2013-02-22 07:15:00,43.3,40.6,29.93,SSE,166,8.0,19.0,90,0.00,,,0.01,5,Wunderground v.1.15,2013-02-22 15:15:00,
2013-02-22 07:20:00,43.2,40.5,29.93,South,171,12.0,12.0,90,0.00,,,0.01,9,Wunderground v.1.15,2013-02-22 15:20:00,
2013-02-22 07:25:00,43.1,40.7,29.94,SSE,167,12.0,19.0,91,0.00,,,0.01,11,Wunderground v.1.15,2013-02-22 15:25:00,
2013-02-22 07:30:00,43.1,40.7,29.93,SSE,156,9.0,12.0,91,0.00,,,0.02,9,Wunderground v.1.15,2013-02-22 15:30:00,
2013-02-22 07:35:00,43.2,40.8,29.93,SSE,161,14.0,19.0,91,0.00,,,0.02,7,Wunderground v.1.15,2013-02-22 15:35:00,
2013-02-22 07:40:00,43.2,40.5,29.93,SSE,166,12.0,12.0,90,0.00,,,0.02,5,Wunderground v.1.15,2013-02-22 15:40:00,
2013-02-22 07:45:00,43.2,40.5,29.94,South,185,11.0,20.0,90,0.00,,,0.03,0,Wunderground v.1.15,2013-02-22 15:45:00,
2013-02-22 07:50:00,43.2,40.8,29.93,SSW,195,9.0,12.0,91,0.00,,,0.03,0,Wunderground v.1.15,2013-02-22 15:50:00,
2013-02-22 07:55:00,43.1,40.7,29.94,SSW,194,11.0,20.0,91,0.00,,,0.03,0,Wunderground v.1.15,2013-02-22 15:55:00,
2013-02-22 08:00:00,43.1,40.7,29.93,South,186,12.0,12.0,91,0.04,,,0.04,0,Wunderground v.1.15,2013-02-22 16:00:00,
2013-02-22 08:05:00,43.0,40.6,29.93,South,184,13.0,20.0,91,0.09,,,0.05,7,Wunderground v.1.15,2013-02-22 16:05:00,
2013-02-22 08:10:00,43.0,40.6,29.93,South,179,15.0,15.0,91,0.11,,,0.06,7,Wunderground v.1.15,2013-02-22 16:10:00,
2013-02-22 08:15:00,43.0,40.6,29.94,SSW,205,12.0,20.0,91,0.09,,,0.07,7,Wunderground v.1.15,2013-02-22 16:15:00,
2013-02-22 08:20:00,43.0,40.6,29.94,SSW,197,10.0,11.0,91,0.09,,,0.07,11,Wunderground v.1.15,2013-02-22 16:20:00,
2013-02-22 08:25:00,43.0,40.6,29.94,SSE,151,8.0,17.0,91,0.06,,,0.07,7,Wunderground v.1.15,2013-02-22 16:25:00,
2013-02-22 08:30:00,43.0,40.6,29.93,South,170,10.0,14.0,91,0.04,,,0.08,9,Wunderground v.1.15,2013-02-22 16:30:00,
2013-02-22 08:35:00,42.9,40.5,29.92,SE,139,8.0,16.0,91,0.04,,,0.08,12,Wunderground v.1.15,2013-02-22 16:35:00,
2013-02-22 08:40:00,42.9,40.5,29.91,SSE,155,10.0,12.0,91,0.07,,,0.09,18,Wunderground v.1.15,2013-02-22 16:40:00,
2013-02-22 08:45:00,42.9,40.5,29.91,SSE,157,18.0,22.0,91,0.07,,,0.09,21,Wunderground v.1.15,2013-02-22 16:45:00,
2013-02-22 08:50:00,42.8,40.4,29.91,South,169,15.0,17.0,91,0.05,,,0.09,18,Wunderground v.1.15,2013-02-22 16:50:00,
2013-02-22 08:55:00,42.7,40.3,29.90,South,180,5.0,24.0,91,0.00,,,0.09,19,Wunderground v.1.15,2013-02-22 16:55:00,
2013-02-22 09:00:00,42.7,40.3,29.90,South,179,14.0,14.0,91,0.00,,,0.09,21,Wunderground v.1.15,2013-02-22 17:00:00,
2013-02-22 09:05:00,42.6,40.2,29.90,South,169,9.0,20.0,91,0.00,,,0.10,25,Wunderground v.1.15,2013-02-22 17:05:00,
2013-02-22 09:10:00,42.6,40.2,29.89,SSE,160,10.0,13.0,91,0.00,,,0.10,18,Wunderground v.1.15,2013-02-22 17:10:00,
2013-02-22 09:15:00,42.6,40.2,29.89,South,172,9.0,19.0,91,0.00,,,0.10,19,Wunderground v.1.15,2013-02-22 17:15:00,
2013-02-22 09:20:00,42.6,40.2,29.90,South,173,10.0,21.0,91,0.05,,,0.11,23,Wunderground v.1.15,2013-02-22 17:20:00,
2013-02-22 09:25:00,42.6,40.2,29.90,South,173,16.0,21.0,91,0.08,,,0.12,28,Wunderground v.1.15,2013-02-22 17:25:00,
2013-02-22 09:30:00,42.6,40.2,29.89,South,170,8.0,13.0,91,0.08,,,0.12,32,Wunderground v.1.15,2013-02-22 17:30:00,
2013-02-22 09:35:00,42.7,40.3,29.90,SSW,197,16.0,16.0,91,0.06,,,0.13,26,Wunderground v.1.15,2013-02-22 17:35:00,
2013-02-22 09:40:00,42.7,40.3,29.90,SSE,166,12.0,14.0,91,0.06,,,0.13,35,Wunderground v.1.15,2013-02-22 17:40:00,
2013-02-22 09:45:00,42.8,40.4,29.90,South,173,17.0,22.0,91,0.07,,,0.14,35,Wunderground v.1.15,2013-02-22 17:45:00,
2013-02-22 09:50:00,42.8,40.4,29.90,South,170,9.0,17.0,91,0.08,,,0.14,30,Wunderground v.1.15,2013-02-22 17:50:00,
2013-02-22 09:55:00,42.9,40.5,29.90,South,191,12.0,24.0,91,0.08,,,0.15,32,Wunderground v.1.15,2013-02-22 17:55:00,
2013-02-22 10:00:00,42.8,40.4,29.90,South,182,16.0,16.0,91,0.08,,,0.16,26,Wunderground v.1.15,2013-02-22 18:00:00,
2013-02-22 10:05:00,42.8,40.4,29.89,South,173,8.0,19.0,91,0.09,,,0.17,26,Wunderground v.1.15,2013-02-22 18:05:00,
2013-02-22 10:10:00,42.8,40.4,29.89,SSW,202,14.0,15.0,91,0.09,,,0.17,25,Wunderground v.1.15,2013-02-22 18:10:00,
2013-02-22 10:15:00,42.7,40.3,29.89,SSW,202,15.0,18.0,91,0.08,,,0.18,28,Wunderground v.1.15,2013-02-22 18:15:00,
2013-02-22 10:20:00,42.8,40.4,29.89,South,169,10.0,11.0,91,0.10,,,0.19,32,Wunderground v.1.15,2013-02-22 18:20:00,
2013-02-22 10:25:00,42.8,40.4,29.89,SSW,198,9.0,20.0,91,0.15,,,0.20,33,Wunderground v.1.15,2013-02-22 18:25:00,
2013-02-22 10:30:00,42.8,40.4,29.88,South,181,13.0,14.0,91,0.12,,,0.21,26,Wunderground v.1.15,2013-02-22 18:30:00,
2013-02-22 10:35:00,42.7,40.3,29.89,South,180,15.0,15.0,91,0.12,,,0.22,32,Wunderground v.1.15,2013-02-22 18:35:00,
2013-02-22 10:40:00,42.8,40.4,29.89,South,182,8.0,11.0,91,0.07,,,0.23,26,Wunderground v.1.15,2013-02-22 18:40:00,
2013-02-22 10:45:00,42.7,40.3,29.89,South,178,11.0,13.0,91,0.11,,,0.23,28,Wunderground v.1.15,2013-02-22 18:45:00,
2013-02-22 10:51:00,42.8,40.4,29.88,South,183,14.0,16.0,91,0.11,,,0.24,23,Wunderground v.1.15,2013-02-22 18:51:00,
2013-02-22 10:56:00,42.7,40.3,29.88,South,175,13.0,20.0,91,0.14,,,0.26,25,Wunderground v.1.15,2013-02-22 18:56:00,
2013-02-22 11:01:00,42.7,40.3,29.88,SSE,162,13.0,16.0,91,0.16,,,0.27,26,Wunderground v.1.15,2013-02-22 19:01:00,
2013-02-22 11:06:00,42.7,40.3,29.89,South,181,16.0,25.0,91,0.15,,,0.28,28,Wunderground v.1.15,2013-02-22 19:06:00,
2013-02-22 11:11:00,42.6,40.2,29.89,SSW,205,19.0,22.0,91,0.11,,,0.29,33,Wunderground v.1.15,2013-02-22 19:11:00,
2013-02-22 11:16:00,42.6,40.2,29.88,South,185,12.0,22.0,91,0.10,,,0.30,30,Wunderground v.1.15,2013-02-22 19:16:00,
2013-02-22 11:21:00,42.6,40.2,29.88,South,176,9.0,13.0,91,0.11,,,0.31,32,Wunderground v.1.15,2013-02-22 19:21:00,
2013-02-22 11:26:00,42.7,40.3,29.88,SSW,195,13.0,20.0,91,0.13,,,0.32,35,Wunderground v.1.15,2013-02-22 19:26:00,
2013-02-22 11:31:00,42.8,40.4,29.88,SSE,166,10.0,18.0,91,0.10,,,0.32,35,Wunderground v.1.15,2013-02-22 19:31:00,
2013-02-22 11:36:00,42.7,40.3,29.87,SE,134,11.0,22.0,91,0.08,,,0.33,40,Wunderground v.1.15,2013-02-22 19:36:00,
2013-02-22 11:41:00,42.7,40.3,29.87,South,172,11.0,15.0,91,0.08,,,0.34,44,Wunderground v.1.15,2013-02-22 19:41:00,
2013-02-22 11:46:00,42.5,40.1,29.87,SSE,159,14.0,20.0,91,0.08,,,0.34,53,Wunderground v.1.15,2013-02-22 19:46:00,
2013-02-22 11:54:00,42.3,39.9,29.87,South,181,20.0,20.0,91,0.05,,,0.35,53,Wunderground v.1.15,2013-02-22 19:54:00,
2013-02-22 11:59:00,42.3,39.9,29.87,SSE,165,22.0,22.0,91,0.05,,,0.35,44,Wunderground v.1.15,2013-02-22 19:59:00,
2013-02-22 12:04:00,42.3,39.9,29.86,South,173,12.0,19.0,91,0.07,,,0.36,49,Wunderground v.1.15,2013-02-22 20:04:00,
2013-02-22 12:09:00,42.4,40.0,29.86,South,186,21.0,25.0,91,0.09,,,0.37,51,Wunderground v.1.15,2013-02-22 20:09:00,
2013-02-22 12:14:00,42.5,40.1,29.85,SSE,157,9.0,20.0,91,0.08,,,0.37,51,Wunderground v.1.15,2013-02-22 20:14:00,
2013-02-22 12:19:00,42.6,40.2,29.85,South,180,14.0,20.0,91,0.06,,,0.38,54,Wunderground v.1.15,2013-02-22 20:19:00,
2013-02-22 12:24:00,42.7,40.3,29.85,SSE,165,10.0,17.0,91,0.06,,,0.38,44,Wunderground v.1.15,2013-02-22 20:24:00,
2013-02-22 12:29:00,42.8,40.4,29.85,SSE,154,10.0,17.0,91,0.05,,,0.38,62,Wunderground v.1.15,2013-02-22 20:29:00,
2013-02-22 12:34:00,42.9,40.5,29.85,South,185,8.0,17.0,91,0.05,,,0.39,53,Wunderground v.1.15,2013-02-22 20:34:00,
2013-02-22 12:39:00,42.9,40.5,29.84,SSE,167,15.0,20.0,91,0.05,,,0.39,39,Wunderground v.1.15,2013-02-22 20:39:00,
2013-02-22 12:44:00,43.0,40.6,29.83,SSE,160,15.0,22.0,91,0.05,,,0.40,30,Wunderground v.1.15,2013-02-22 20:44:00,
2013-02-22 12:49:00,42.9,40.5,29.83,South,180,11.0,22.0,91,0.05,,,0.40,35,Wunderground v.1.15,2013-02-22 20:49:00,
2013-02-22 12:54:00,42.9,40.5,29.83,South,175,12.0,20.0,91,0.05,,,0.40,37,Wunderground v.1.15,2013-02-22 20:54:00,
2013-02-22 12:59:00,43.0,40.6,29.84,South,178,17.0,20.0,91,0.00,,,0.41,37,Wunderground v.1.15,2013-02-22 20:59:00,
2013-02-22 13:04:00,43.1,40.7,29.84,South,175,10.0,17.0,91,0.00,,,0.41,37,Wunderground v.1.15,2013-02-22 21:04:00,
2013-02-22 13:09:00,43.1,40.7,29.83,South,173,12.0,23.0,91,0.00,,,0.41,46,Wunderground v.1.15,2013-02-22 21:09:00,
2013-02-22 13:14:00,43.2,40.8,29.83,South,180,14.0,18.0,91,0.04,,,0.42,77,Wunderground v.1.15,2013-02-22 21:14:00,
2013-02-22 13:19:00,43.3,40.8,29.83,SSW,200,8.0,21.0,91,0.04,,,0.42,79,Wunderground v.1.15,2013-02-22 21:19:00,
2013-02-22 13:24:00,43.4,40.9,29.82,South,174,14.0,20.0,91,0.04,,,0.42,93,Wunderground v.1.15,2013-02-22 21:24:00,
2013-02-22 13:29:00,43.3,40.8,29.82,South,188,11.0,20.0,91,0.05,,,0.43,121,Wunderground v.1.15,2013-02-22 21:29:00,
2013-02-22 13:34:00,43.4,40.9,29.82,South,179,17.0,23.0,91,0.05,,,0.43,141,Wunderground v.1.15,2013-02-22 21:34:00,
2013-02-22 13:39:00,43.5,41.0,29.81,SSW,202,19.0,23.0,91,0.05,,,0.43,139,Wunderground v.1.15,2013-02-22 21:39:00,
2013-02-22 13:44:00,43.4,40.9,29.81,SSE,159,17.0,20.0,91,0.00,,,0.43,116,Wunderground v.1.15,2013-02-22 21:44:00,
2013-02-22 13:49:00,43.2,40.8,29.81,South,191,19.0,20.0,91,0.00,,,0.44,111,Wunderground v.1.15,2013-02-22 21:49:00,
2013-02-22 13:54:00,43.3,40.8,29.81,South,188,11.0,18.0,91,0.00,,,0.44,62,Wunderground v.1.15,2013-02-22 21:54:00,
2013-02-22 13:59:00,43.3,40.8,29.80,SSE,166,14.0,21.0,91,0.00,,,0.44,62,Wunderground v.1.15,2013-02-22 21:59:00,
2013-02-22 14:04:00,43.4,40.9,29.81,SW,214,9.0,22.0,91,0.04,,,0.45,46,Wunderground v.1.15,2013-02-22 22:04:00,
2013-02-22 14:09:00,43.4,40.9,29.81,SW,220,9.0,22.0,91,0.04,,,0.45,44,Wunderground v.1.15,2013-02-22 22:09:00,
2013-02-22 14:14:00,43.4,40.9,29.80,South,191,8.0,15.0,91,0.10,,,0.46,56,Wunderground v.1.15,2013-02-22 22:14:00,
2013-02-22 14:19:00,43.5,40.8,29.80,SSW,194,7.0,15.0,90,0.09,,,0.47,54,Wunderground v.1.15,2013-02-22 22:19:00,
2013-02-22 14:24:00,43.5,40.8,29.80,SSW,200,7.0,11.0,90,0.08,,,0.47,56,Wunderground v.1.15,2013-02-22 22:24:00,
2013-02-22 14:29:00,43.5,40.8,29.79,South,189,12.0,12.0,90,0.06,,,0.48,76,Wunderground v.1.15,2013-02-22 22:29:00,
2013-02-22 14:34:00,43.6,40.9,29.80,SSW,192,11.0,13.0,90,0.06,,,0.48,53,Wunderground v.1.15,2013-02-22 22:34:00,
2013-02-22 14:39:00,43.6,40.9,29.79,South,171,16.0,17.0,90,0.06,,,0.49,63,Wunderground v.1.15,2013-02-22 22:39:00,
2013-02-22 14:44:00,43.7,41.0,29.80,SW,227,5.0,17.0,90,0.06,,,0.49,42,Wunderground v.1.15,2013-02-22 22:44:00,
2013-02-22 14:49:00,43.7,41.0,29.81,WSW,246,5.0,17.0,90,0.05,,,0.49,33,Wunderground v.1.15,2013-02-22 22:49:00,
2013-02-22 14:54:00,43.7,40.7,29.81,SSW,212,6.0,13.0,89,0.04,,,0.49,46,Wunderground v.1.15,2013-02-22 22:54:00,
2013-02-22 14:58:00,44.0,41.3,29.81,SSW,196,15.0,18.0,90,0.00,,,0.49,70,Wunderground v.1.15,2013-02-22 22:58:00,
2013-02-22 15:03:00,44.3,41.6,29.81,SSW,192,13.0,20.0,90,0.00,,,0.49,51,Wunderground v.1.15,2013-02-22 23:03:00,
2013-02-22 15:08:00,44.2,41.5,29.82,SSW,192,8.0,20.0,90,0.00,,,0.49,53,Wunderground v.1.15,2013-02-22 23:08:00,
2013-02-22 15:13:00,44.2,41.5,29.82,SSW,196,9.0,13.0,90,0.00,,,0.49,93,Wunderground v.1.15,2013-02-22 23:13:00,
2013-02-22 15:18:00,44.6,41.6,29.82,SSW,200,6.0,13.0,89,0.00,,,0.49,209,Wunderground v.1.15,2013-02-22 23:18:00,
2013-02-22 15:23:00,45.1,42.1,29.82,South,188,7.0,13.0,89,0.00,,,0.49,450,Wunderground v.1.15,2013-02-22 23:23:00,
2013-02-22 15:28:00,46.1,43.0,29.81,South,180,10.0,13.0,89,0.00,,,0.49,160,Wunderground v.1.15,2013-02-22 23:28:00,
2013-02-22 15:33:00,45.8,43.3,29.81,South,184,11.0,11.0,91,0.00,,,0.49,77,Wunderground v.1.15,2013-02-22 23:33:00,
2013-02-22 15:38:00,45.3,42.8,29.81,South,184,6.0,13.0,91,0.00,,,0.49,81,Wunderground v.1.15,2013-02-22 23:38:00,
2013-02-22 15:43:00,45.1,42.6,29.81,SSW,197,7.0,11.0,91,0.00,,,0.49,18,Wunderground v.1.15,2013-02-22 23:43:00,
2013-02-22 15:48:00,45.0,42.2,29.83,SW,226,4.0,11.0,90,0.77,,,0.51,14,Wunderground v.1.15,2013-02-22 23:48:00,
2013-02-22 15:53:00,44.8,42.0,29.83,SSW,198,10.0,14.0,90,0.16,,,0.53,46,Wunderground v.1.15,2013-02-22 23:53:00,
2013-02-22 15:58:00,44.9,42.1,29.82,SSW,198,8.0,17.0,90,0.12,,,0.54,86,Wunderground v.1.15,2013-02-22 23:58:00,
2013-02-22 16:03:00,45.4,42.9,29.82,WSW,252,12.0,13.0,91,0.07,,,0.54,200,Wunderground v.1.15,2013-02-23 00:03:00,
2013-02-22 16:08:00,45.1,42.3,29.83,SW,225,8.0,15.0,90,0.04,,,0.54,105,Wunderground v.1.15,2013-02-23 00:08:00,
2013-02-22 16:13:00,45.0,42.2,29.83,SW,231,12.0,15.0,90,0.00,,,0.54,72,Wunderground v.1.15,2013-02-23 00:13:00,
2013-02-22 16:18:00,44.9,42.1,29.83,SW,219,6.0,15.0,90,0.00,,,0.54,169,Wunderground v.1.15,2013-02-23 00:18:00,
2013-02-22 16:23:00,45.3,42.5,29.83,SW,229,4.0,10.0,90,0.00,,,0.54,209,Wunderground v.1.15,2013-02-23 00:23:00,
2013-02-22 16:28:00,45.2,42.4,29.83,SW,224,9.0,13.0,90,0.00,,,0.54,104,Wunderground v.1.15,2013-02-23 00:28:00,
2013-02-22 16:33:00,44.9,42.1,29.83,SW,224,6.0,9.0,90,0.00,,,0.54,21,Wunderground v.1.15,2013-02-23 00:33:00,
2013-02-22 16:38:00,44.6,41.8,29.83,SW,232,5.0,9.0,90,0.00,,,0.54,39,Wunderground v.1.15,2013-02-23 00:38:00,
2013-02-22 16:43:00,44.6,41.8,29.83,SSW,206,4.0,10.0,90,0.00,,,0.54,90,Wunderground v.1.15,2013-02-23 00:43:00,
2013-02-22 16:48:00,44.5,41.7,29.83,SW,217,7.0,10.0,90,0.00,,,0.54,60,Wunderground v.1.15,2013-02-23 00:48:00,
2013-02-22 16:53:00,44.7,41.9,29.84,SSW,205,6.0,10.0,90,0.00,,,0.54,86,Wunderground v.1.15,2013-02-23 00:53:00,
2013-02-22 16:58:00,44.5,41.7,29.84,SW,227,12.0,13.0,90,0.00,,,0.54,79,Wunderground v.1.15,2013-02-23 00:58:00,
2013-02-22 17:03:00,44.3,41.3,29.84,SW,232,8.0,16.0,89,0.00,,,0.54,46,Wunderground v.1.15,2013-02-23 01:03:00,
2013-02-22 17:08:00,44.0,41.3,29.84,SW,219,6.0,16.0,90,0.00,,,0.54,44,Wunderground v.1.15,2013-02-23 01:08:00,
2013-02-22 17:13:00,43.8,40.8,29.84,WSW,248,7.0,14.0,89,0.00,,,0.55,42,Wunderground v.1.15,2013-02-23 01:13:00,
2013-02-22 17:18:00,43.6,40.6,29.85,WSW,248,10.0,14.0,89,0.00,,,0.55,23,Wunderground v.1.15,2013-02-23 01:18:00,
2013-02-22 17:23:00,43.4,40.4,29.85,West,259,5.0,8.0,89,0.00,,,0.55,11,Wunderground v.1.15,2013-02-23 01:23:00,
2013-02-22 17:28:00,43.1,40.1,29.85,SW,217,5.0,8.0,89,0.00,,,0.55,9,Wunderground v.1.15,2013-02-23 01:28:00,
2013-02-22 17:33:00,43.0,39.7,29.84,SW,224,9.0,11.0,88,0.00,,,0.55,7,Wunderground v.1.15,2013-02-23 01:33:00,
2013-02-22 17:38:00,42.5,39.2,29.85,SW,227,7.0,11.0,88,0.00,,,0.55,5,Wunderground v.1.15,2013-02-23 01:38:00,
2013-02-22 17:43:00,42.3,39.0,29.85,West,261,7.0,12.0,88,0.00,,,0.55,0,Wunderground v.1.15,2013-02-23 01:43:00,
2013-02-22 17:48:00,42.4,39.1,29.85,SW,232,10.0,12.0,88,0.00,,,0.55,0,Wunderground v.1.15,2013-02-23 01:48:00,
2013-02-22 17:56:00,42.3,38.7,29.85,West,263,5.0,7.0,87,0.00,,,0.55,0,Wunderground v.1.15,2013-02-23 01:56:00,
2013-02-22 18:01:00,42.1,38.5,29.86,WSW,257,6.0,10.0,87,0.00,,,0.55,0,Wunderground v.1.15,2013-02-23 02:01:00,
2013-02-22 18:06:00,41.9,38.6,29.87,West,265,15.0,20.0,88,0.00,,,0.55,0,Wunderground v.1.15,2013-02-23 02:06:00,
2013-02-22 18:11:00,41.5,37.0,29.87,WSW,243,13.0,24.0,84,0.00,,,0.55,0,Wunderground v.1.15,2013-02-23 02:11:00,
2013-02-22 18:16:00,41.0,36.8,29.87,WSW,252,8.0,24.0,85,0.00,,,0.56,0,Wunderground v.1.15,2013-02-23 02:16:00,
2013-02-22 18:21:00,40.7,37.1,29.87,WSW,250,13.0,22.0,87,0.00,,,0.56,0,Wunderground v.1.15,2013-02-23 02:21:00,
2013-02-22 18:26:00,40.4,37.1,29.87,SW,233,8.0,23.0,88,0.00,,,0.56,0,Wunderground v.1.15,2013-02-23 02:26:00,
2013-02-22 18:31:00,40.4,37.1,29.87,WSW,252,8.0,12.0,88,0.00,,,0.56,0,Wunderground v.1.15,2013-02-23 02:31:00,
2013-02-22 18:36:00,40.2,37.2,29.87,SW,235,8.0,13.0,89,0.00,,,0.56,0,Wunderground v.1.15,2013-02-23 02:36:00,
2013-02-22 18:41:00,39.9,36.9,29.87,WSW,242,7.0,12.0,89,0.00,,,0.56,0,Wunderground v.1.15,2013-02-23 02:41:00,
2013-02-22 18:46:00,39.7,36.7,29.87,WSW,246,7.0,13.0,89,0.00,,,0.56,0,Wunderground v.1.15,2013-02-23 02:46:00,
2013-02-22 18:51:00,39.8,36.8,29.87,SW,230,5.0,10.0,89,0.00,,,0.56,0,Wunderground v.1.15,2013-02-23 02:51:00,
2013-02-22 18:56:00,39.7,36.7,29.87,WSW,238,8.0,10.0,89,0.00,,,0.56,0,Wunderground v.1.15,2013-02-23 02:56:00,
2013-02-22 19:01:00,39.1,36.4,29.88,SSW,210,6.0,7.0,90,0.00,,,0.56,0,Wunderground v.1.15,2013-02-23 03:01:00,
2013-02-22 19:06:00,38.6,35.9,29.89,SW,216,6.0,8.0,90,0.00,,,0.56,0,Wunderground v.1.15,2013-02-23 03:06:00,
2013-02-22 19:11:00,38.4,35.7,29.89,SW,226,5.0,7.0,90,0.00,,,0.56,0,Wunderground v.1.15,2013-02-23 03:11:00,
2013-02-22 19:16:00,38.5,35.8,29.89,SW,232,8.0,9.0,90,0.00,,,0.56,0,Wunderground v.1.15,2013-02-23 03:16:00,
2013-02-22 19:21:00,38.7,36.0,29.90,WSW,240,5.0,6.0,90,0.00,,,0.56,0,Wunderground v.1.15,2013-02-23 03:21:00,
2013-02-22 19:26:00,38.7,35.7,29.90,SW,226,6.0,7.0,89,0.00,,,0.56,0,Wunderground v.1.15,2013-02-23 03:26:00,
2013-02-22 19:31:00,38.7,35.7,29.91,SW,219,7.0,13.0,89,0.00,,,0.56,0,Wunderground v.1.15,2013-02-23 03:31:00,
2013-02-22 19:36:00,39.0,36.0,29.91,SW,232,7.0,13.0,89,0.00,,,0.56,0,Wunderground v.1.15,2013-02-23 03:36:00,
2013-02-22 19:41:00,39.2,36.2,29.91,WSW,241,4.0,6.0,89,0.00,,,0.56,0,Wunderground v.1.15,2013-02-23 03:41:00,
2013-02-22 19:46:00,39.0,36.0,29.90,WSW,241,2.0,6.0,89,0.00,,,0.56,0,Wunderground v.1.15,2013-02-23 03:46:00,
2013-02-22 19:51:00,38.9,35.9,29.90,WSW,245,4.0,4.0,89,0.00,,,0.56,0,Wunderground v.1.15,2013-02-23 03:51:00,
2013-02-22 19:56:00,38.7,35.7,29.91,WSW,238,3.0,6.0,89,0.00,,,0.56,0,Wunderground v.1.15,2013-02-23 03:56:00,
2013-02-22 20:01:00,38.5,35.8,29.91,SW,215,6.0,8.0,90,0.00,,,0.56,0,Wunderground v.1.15,2013-02-23 04:01:00,
2013-02-22 20:06:00,38.5,35.8,29.91,SW,223,3.0,8.0,90,0.00,,,0.56,0,Wunderground v.1.15,2013-02-23 04:06:00,
2013-02-22 20:11:00,38.6,35.9,29.91,SW,232,6.0,7.0,90,0.00,,,0.56,0,Wunderground v.1.15,2013-02-23 04:11:00,
2013-02-22 20:16:00,38.9,36.2,29.91,SSW,200,8.0,12.0,90,0.00,,,0.56,0,Wunderground v.1.15,2013-02-23 04:16:00,
2013-02-22 20:21:00,39.4,36.1,29.91,SW,229,11.0,12.0,88,0.00,,,0.56,0,Wunderground v.1.15,2013-02-23 04:21:00,
2013-02-22 20:26:00,39.6,36.0,29.92,SW,214,8.0,20.0,87,0.00,,,0.56,0,Wunderground v.1.15,2013-02-23 04:26:00,
2013-02-22 20:31:00,38.9,35.4,29.93,West,271,19.0,22.0,87,0.00,,,0.57,0,Wunderground v.1.15,2013-02-23 04:31:00,
2013-02-22 20:36:00,38.3,35.3,29.93,West,269,6.0,22.0,89,0.07,,,0.58,0,Wunderground v.1.15,2013-02-23 04:36:00,
2013-02-22 20:41:00,38.1,35.4,29.93,West,267,4.0,14.0,90,0.07,,,0.58,0,Wunderground v.1.15,2013-02-23 04:41:00,
2013-02-22 20:47:00,37.9,35.2,29.92,SW,223,3.0,14.0,90,0.05,,,0.58,0,Wunderground v.1.15,2013-02-23 04:47:00,
2013-02-22 20:52:00,37.5,34.8,29.92,SW,231,4.0,6.0,90,0.05,,,0.59,0,Wunderground v.1.15,2013-02-23 04:52:00,
2013-02-22 20:57:00,37.1,34.7,29.92,SW,230,4.0,8.0,91,0.05,,,0.59,0,Wunderground v.1.15,2013-02-23 04:57:00,
2013-02-22 21:00:00,37.0,34.6,29.92,SW,217,4.0,5.0,91,0.05,,,0.59,0,Wunderground v.1.15,2013-02-23 05:00:00,
2013-02-22 21:05:00,36.4,34.0,29.93,SSW,202,6.0,7.0,91,0.04,,,0.59,0,Wunderground v.1.15,2013-02-23 05:05:00,
2013-02-22 21:10:00,36.2,33.8,29.93,SSW,195,7.0,7.0,91,0.00,,,0.59,0,Wunderground v.1.15,2013-02-23 05:10:00,
2013-02-22 21:15:00,36.2,33.8,29.93,SSW,194,4.0,7.0,91,0.00,,,0.59,0,Wunderground v.1.15,2013-02-23 05:15:00,
2013-02-22 21:21:00,36.4,34.0,29.94,SSW,213,11.0,11.0,91,0.00,,,0.59,0,Wunderground v.1.15,2013-02-23 05:21:00,
2013-02-22 21:26:00,37.2,34.8,29.94,WSW,250,10.0,18.0,91,0.00,,,0.59,0,Wunderground v.1.15,2013-02-23 05:26:00,
2013-02-22 21:31:00,37.0,34.6,29.94,West,267,10.0,16.0,91,0.00,,,0.59,0,Wunderground v.1.15,2013-02-23 05:31:00,
2013-02-22 21:36:00,36.5,34.1,29.94,WSW,247,6.0,18.0,91,0.00,,,0.59,0,Wunderground v.1.15,2013-02-23 05:36:00,
2013-02-22 21:41:00,36.2,33.8,29.94,SW,222,6.0,10.0,91,0.00,,,0.59,0,Wunderground v.1.15,2013-02-23 05:41:00,
2013-02-22 21:46:00,36.3,33.9,29.95,SW,225,8.0,16.0,91,0.00,,,0.59,0,Wunderground v.1.15,2013-02-23 05:46:00,
2013-02-22 21:51:00,36.3,33.9,29.95,SW,215,4.0,8.0,91,0.00,,,0.59,0,Wunderground v.1.15,2013-02-23 05:51:00,
2013-02-22 21:56:00,36.2,33.8,29.94,South,180,7.0,8.0,91,0.00,,,0.59,0,Wunderground v.1.15,2013-02-23 05:56:00,
2013-02-22 22:01:00,35.9,33.5,29.94,South,172,8.0,9.0,91,0.00,,,0.59,0,Wunderground v.1.15,2013-02-23 06:01:00,
2013-02-22 22:06:00,35.7,33.3,29.95,SSW,203,4.0,9.0,91,0.00,,,0.59,0,Wunderground v.1.15,2013-02-23 06:06:00,
2013-02-22 22:11:00,35.7,33.3,29.95,SW,215,4.0,5.0,91,0.00,,,0.59,0,Wunderground v.1.15,2013-02-23 06:11:00,
2013-02-22 22:16:00,35.6,33.2,29.95,SSW,200,3.0,6.0,91,0.00,,,0.59,0,Wunderground v.1.15,2013-02-23 06:16:00,
2013-02-22 22:21:00,35.6,33.0,29.95,South,182,3.0,4.0,90,0.00,,,0.59,0,Wunderground v.1.15,2013-02-23 06:21:00,
2013-02-22 22:26:00,35.7,33.1,29.96,SSW,194,3.0,5.0,90,0.00,,,0.59,0,Wunderground v.1.15,2013-02-23 06:26:00,
2013-02-22 22:31:00,36.1,33.5,29.96,South,190,4.0,6.0,90,0.00,,,0.59,0,Wunderground v.1.15,2013-02-23 06:31:00,
2013-02-22 22:36:00,36.1,33.7,29.96,South,190,4.0,6.0,91,0.00,,,0.59,0,Wunderground v.1.15,2013-02-23 06:36:00,
2013-02-22 22:41:00,36.1,33.7,29.96,South,190,6.0,8.0,91,0.00,,,0.59,0,Wunderground v.1.15,2013-02-23 06:41:00,
2013-02-22 22:46:00,35.6,33.2,29.96,South,186,4.0,8.0,91,0.00,,,0.60,0,Wunderground v.1.15,2013-02-23 06:46:00,
2013-02-22 22:51:00,35.6,33.2,29.96,South,186,3.0,5.0,91,0.00,,,0.60,0,Wunderground v.1.15,2013-02-23 06:51:00,
2013-02-22 22:56:00,35.8,33.4,29.97,South,186,2.0,5.0,91,0.00,,,0.60,0,Wunderground v.1.15,2013-02-23 06:56:00,
2013-02-22 23:01:00,35.6,33.2,29.97,South,186,2.0,3.0,91,0.00,,,0.60,0,Wunderground v.1.15,2013-02-23 07:01:00,
2013-02-22 23:06:00,35.5,33.1,29.98,South,178,1.0,5.0,91,0.00,,,0.60,0,Wunderground v.1.15,2013-02-23 07:06:00,
2013-02-22 23:11:00,35.3,32.9,29.98,South,178,4.0,4.0,91,0.00,,,0.60,0,Wunderground v.1.15,2013-02-23 07:11:00,
2013-02-22 23:16:00,35.3,32.9,29.98,South,173,4.0,6.0,91,0.00,,,0.60,0,Wunderground v.1.15,2013-02-23 07:16:00,
2013-02-22 23:21:00,35.2,32.8,29.98,South,173,4.0,5.0,91,0.00,,,0.60,0,Wunderground v.1.15,2013-02-23 07:21:00,
2013-02-22 23:26:00,35.3,32.7,29.98,SSE,167,1.0,6.0,90,0.00,,,0.60,0,Wunderground v.1.15,2013-02-23 07:26:00,
2013-02-22 23:31:00,35.4,32.8,29.98,SSE,167,2.0,3.0,90,0.00,,,0.60,0,Wunderground v.1.15,2013-02-23 07:31:00,
2013-02-22 23:36:00,35.5,32.9,29.99,SSE,167,2.0,5.0,90,0.00,,,0.60,0,Wunderground v.1.15,2013-02-23 07:36:00,
2013-02-22 23:41:00,35.7,33.1,30.00,SSE,167,0.0,2.0,90,0.00,,,0.60,0,Wunderground v.1.15,2013-02-23 07:41:00,
2013-02-22 23:47:00,35.7,33.1,30.00,SSE,167,1.0,4.0,90,0.00,,,0.60,0,Wunderground v.1.15,2013-02-23 07:47:00,
2013-02-22 23:54:00,35.8,33.2,30.00,SW,223,4.0,4.0,90,0.00,,,0.60,0,Wunderground v.1.15,2013-02-23 07:54:00,
2013-02-22 23:59:00,35.9,33.3,30.00,SW,223,4.0,4.0,90,0.00,,,0.61,0,Wunderground v.1.15,2013-02-23 07:59:00,